createdAt,value
2019-04-06T00:02:19.512Z,1.50
2019-04-06T00:04:49.002Z,2.20
2019-04-06T00:07:18.384Z,2.37
2019-04-06T00:09:47.811Z,1.90
2019-04-06T00:12:17.285Z,2.60
2019-04-06T00:14:46.681Z,2.00
2019-04-06T00:17:16.082Z,2.30
2019-04-06T00:19:45.836Z,2.13
2019-04-06T00:22:16.240Z,2.10
2019-04-06T00:24:45.952Z,2.60
2019-04-06T00:27:15.367Z,2.20
2019-04-06T00:29:44.821Z,1.77
2019-04-06T00:32:20.432Z,1.97
2019-04-06T00:34:49.831Z,2.43
2019-04-06T00:37:19.221Z,2.23
2019-04-06T00:39:48.633Z,1.93
2019-04-06T00:42:18.020Z,1.63
2019-04-06T00:44:47.492Z,2.27
2019-04-06T00:47:16.965Z,2.33
2019-04-06T00:49:46.376Z,2.27
2019-04-06T00:52:15.761Z,2.47
2019-04-06T00:54:46.948Z,2.57
2019-04-06T00:57:16.943Z,2.33
2019-04-06T00:59:46.544Z,2.00
2019-04-06T01:02:16.119Z,2.33
2019-04-06T01:04:45.503Z,2.50
2019-04-06T01:07:14.886Z,2.20
2019-04-06T01:09:44.392Z,2.20
2019-04-06T01:12:13.789Z,2.20
2019-04-06T01:14:43.219Z,2.57
2019-04-06T01:17:12.609Z,2.47
2019-04-06T01:19:42.650Z,1.67
2019-04-06T01:22:12.033Z,2.27
2019-04-06T01:24:41.412Z,2.10
2019-04-06T01:27:10.817Z,2.50
2019-04-06T01:29:40.237Z,2.07
2019-04-06T01:32:09.715Z,2.27
2019-04-06T01:34:40.972Z,2.33
2019-04-06T01:37:10.408Z,2.17
2019-04-06T01:39:39.797Z,1.90
2019-04-06T01:42:09.237Z,2.47
2019-04-06T01:44:38.729Z,2.20
2019-04-06T01:47:08.140Z,2.80
2019-04-06T01:49:37.591Z,1.87
2019-04-06T01:52:07.010Z,2.60
2019-04-06T01:54:36.468Z,2.20
2019-04-06T01:57:05.872Z,2.10
2019-04-06T01:59:35.256Z,1.97
2019-04-06T02:02:39.036Z,1.83
2019-04-06T02:05:08.836Z,2.40
2019-04-06T02:07:38.233Z,2.20
2019-04-06T02:10:08.428Z,1.80
2019-04-06T02:12:37.849Z,1.70
2019-04-06T02:15:08.284Z,2.27
2019-04-06T02:17:37.696Z,2.43
2019-04-06T02:20:07.625Z,2.17
2019-04-06T02:22:37.089Z,2.57
2019-04-06T02:25:07.711Z,2.57
2019-04-06T02:27:37.207Z,2.30
2019-04-06T02:30:30.049Z,2.20
2019-04-06T02:33:21.125Z,2.20
2019-04-06T02:36:09.472Z,2.03
2019-04-06T02:38:47.918Z,3.10
2019-04-06T02:41:42.118Z,2.50
2019-04-06T02:44:11.680Z,2.97
2019-04-06T02:46:41.173Z,2.60
2019-04-06T02:49:10.642Z,2.10
2019-04-06T02:51:40.113Z,2.47
2019-04-06T02:54:09.488Z,1.90
2019-04-06T02:56:46.594Z,2.73
2019-04-06T02:59:10.255Z,2.00
2019-04-06T03:01:39.776Z,2.87
2019-04-06T03:04:09.165Z,2.30
2019-04-06T03:06:38.573Z,2.17
2019-04-06T03:09:11.468Z,2.30
2019-04-06T03:11:40.710Z,2.37
2019-04-06T03:14:10.209Z,2.33
2019-04-06T03:16:39.702Z,2.27
2019-04-06T03:19:09.198Z,2.03
2019-04-06T03:21:38.661Z,2.30
2019-04-06T03:24:08.140Z,2.17
2019-04-06T03:26:37.615Z,2.90
2019-04-06T03:29:07.065Z,2.60
2019-04-06T03:31:36.495Z,2.33
2019-04-06T03:34:06.159Z,2.47
2019-04-06T03:36:35.604Z,2.77
2019-04-06T03:39:08.304Z,2.20
2019-04-06T03:41:37.751Z,2.53
2019-04-06T03:44:07.502Z,2.60
2019-04-06T03:46:36.895Z,2.40
2019-04-06T03:49:06.359Z,2.53
2019-04-06T03:51:35.836Z,2.80
2019-04-06T03:54:05.394Z,2.90
2019-04-06T03:56:34.887Z,3.90
2019-04-06T03:59:04.348Z,3.30
2019-04-06T04:01:33.810Z,4.03
2019-04-06T04:04:03.289Z,5.77
2019-04-06T04:06:33.757Z,5.70
2019-04-06T04:09:04.691Z,6.40
2019-04-06T04:11:34.140Z,8.27
2019-04-06T04:14:03.575Z,9.37
2019-04-06T04:16:33.039Z,9.83
2019-04-06T04:19:02.462Z,11.37
2019-04-06T04:21:31.866Z,14.00
2019-04-06T04:24:01.341Z,12.67
2019-04-06T04:26:30.764Z,13.00
2019-04-06T04:29:00.213Z,14.30
2019-04-06T04:31:29.633Z,14.07
2019-04-06T04:33:59.119Z,14.97
2019-04-06T04:36:29.911Z,12.20
2019-04-06T04:38:59.592Z,13.60
2019-04-06T04:41:29.064Z,15.47
2019-04-06T04:43:58.473Z,14.17
2019-04-06T04:46:27.940Z,13.00
2019-04-06T04:48:57.362Z,14.63
2019-04-06T04:51:26.820Z,13.17
2019-04-06T04:53:56.232Z,14.10
2019-04-06T04:56:25.645Z,11.77
2019-04-06T04:58:55.118Z,11.13
2019-04-06T05:01:25.626Z,12.03
2019-04-06T05:03:55.972Z,12.57
2019-04-06T05:06:25.457Z,12.83
2019-04-06T05:08:54.846Z,11.63
2019-04-06T05:11:24.263Z,10.20
2019-04-06T05:14:30.444Z,10.03
2019-04-06T05:17:00.262Z,8.37
2019-04-06T05:19:29.760Z,7.70
2019-04-06T05:21:59.153Z,8.60
2019-04-06T05:24:28.693Z,8.23
2019-04-06T05:26:58.234Z,8.00
2019-04-06T05:29:27.843Z,8.27
2019-04-06T05:31:57.384Z,9.03
2019-04-06T05:34:26.796Z,7.20
2019-04-06T05:36:56.192Z,9.90
2019-04-06T05:39:25.577Z,8.00
2019-04-06T05:41:55.043Z,11.23
2019-04-06T05:44:24.660Z,9.40
2019-04-06T05:46:54.293Z,7.50
2019-04-06T05:49:23.822Z,9.23
2019-04-06T05:51:53.299Z,9.33
2019-04-06T05:54:22.707Z,9.10
2019-04-06T05:56:52.089Z,9.10
2019-04-06T05:59:21.558Z,9.30
2019-04-06T06:01:51.032Z,9.40
2019-04-06T06:04:20.491Z,8.67
2019-04-06T06:06:50.161Z,10.53
2019-04-06T06:09:19.930Z,10.20
2019-04-06T06:11:49.463Z,10.57
2019-04-06T06:14:18.979Z,13.20
2019-04-06T06:16:48.429Z,14.53
2019-04-06T06:19:17.909Z,13.20
2019-04-06T06:21:47.454Z,13.27
2019-04-06T06:24:16.913Z,13.27
2019-04-06T06:26:46.307Z,13.20
2019-04-06T06:29:15.733Z,13.37
2019-04-06T06:31:45.185Z,12.87
2019-04-06T06:34:14.821Z,12.80
2019-04-06T06:36:44.403Z,13.27
2019-04-06T06:39:15.290Z,13.10
2019-04-06T06:41:44.782Z,12.40
2019-04-06T06:44:14.268Z,13.03
2019-04-06T06:46:43.676Z,15.17
2019-04-06T06:49:13.254Z,14.67
2019-04-06T06:51:43.008Z,15.03
2019-04-06T06:54:12.404Z,14.07
2019-04-06T06:56:42.041Z,21.83
2019-04-06T06:59:11.588Z,20.80
2019-04-06T07:01:41.062Z,24.57
2019-04-06T07:04:10.528Z,24.93
2019-04-06T07:06:39.936Z,28.90
2019-04-06T07:09:09.667Z,30.40
2019-04-06T07:11:39.188Z,31.77
2019-04-06T07:14:08.694Z,30.97
2019-04-06T07:16:38.112Z,31.57
2019-04-06T07:19:07.557Z,34.20
2019-04-06T07:21:37.027Z,31.83
2019-04-06T07:24:06.444Z,31.73
2019-04-06T07:26:35.861Z,33.90
2019-04-06T07:29:05.569Z,31.40
2019-04-06T07:31:35.297Z,30.20
2019-04-06T07:34:04.775Z,30.77
2019-04-06T07:36:34.490Z,29.97
2019-04-06T07:39:05.682Z,27.47
2019-04-06T07:41:35.164Z,30.80
2019-04-06T07:44:05.890Z,29.60
2019-04-06T07:46:35.979Z,29.00
2019-04-06T07:49:09.588Z,25.97
2019-04-06T07:51:36.789Z,28.60
2019-04-06T07:54:06.325Z,29.80
2019-04-06T07:56:35.810Z,27.87
2019-04-06T07:59:05.301Z,28.10
2019-04-06T08:01:34.772Z,25.73
2019-04-06T08:04:04.272Z,27.77
2019-04-06T08:06:33.760Z,28.73
2019-04-06T08:09:04.294Z,28.10
2019-04-06T08:11:34.723Z,27.97
2019-04-06T08:14:04.241Z,27.27
2019-04-06T08:16:33.705Z,28.53
2019-04-06T08:19:03.336Z,29.30
2019-04-06T08:21:32.907Z,30.07
2019-04-06T08:24:02.308Z,29.80
2019-04-06T08:26:31.857Z,30.27
2019-04-06T08:29:02.443Z,29.93
2019-04-06T08:31:32.327Z,29.80
2019-04-06T08:34:01.837Z,32.60
2019-04-06T08:36:32.387Z,30.40
2019-04-06T08:39:01.816Z,31.67
2019-04-06T08:41:31.223Z,30.63
2019-04-06T08:44:00.688Z,32.43
2019-04-06T08:46:30.105Z,30.10
2019-04-06T08:48:59.564Z,30.40
2019-04-06T08:51:28.964Z,32.00
2019-04-06T08:53:58.517Z,32.10
2019-04-06T08:56:28.044Z,28.03
2019-04-06T08:58:57.481Z,29.17
2019-04-06T09:01:26.980Z,29.70
2019-04-06T09:03:56.445Z,28.67
2019-04-06T09:06:25.848Z,31.37
2019-04-06T09:08:55.448Z,30.63
2019-04-06T09:11:24.985Z,29.53
2019-04-06T09:13:54.381Z,30.50
2019-04-06T09:16:23.880Z,32.23
2019-04-06T09:18:53.272Z,33.03
2019-04-06T09:21:22.973Z,31.90
2019-04-06T09:23:52.440Z,31.30
2019-04-06T09:26:22.055Z,29.97
2019-04-06T09:28:51.641Z,30.83
2019-04-06T09:31:21.101Z,30.00
2019-04-06T09:33:50.517Z,30.73
2019-04-06T09:36:19.913Z,30.80
2019-04-06T09:38:49.372Z,30.30
2019-04-06T09:41:18.877Z,29.03
2019-04-06T09:43:48.284Z,31.17
2019-04-06T09:46:35.474Z,31.23
2019-04-06T09:49:32.993Z,32.07
2019-04-06T09:52:14.693Z,33.10
2019-04-06T09:55:01.368Z,36.03
2019-04-06T09:57:55.616Z,37.23
2019-04-06T10:00:49.828Z,35.57
2019-04-06T10:03:56.668Z,34.73
2019-04-06T10:06:59.984Z,34.17
2019-04-06T10:10:00.465Z,32.50
2019-04-06T10:12:48.297Z,33.60
2019-04-06T10:15:39.448Z,35.00
2019-04-06T10:18:26.697Z,33.27
2019-04-06T10:21:25.387Z,33.10
2019-04-06T10:24:19.671Z,31.63
2019-04-06T10:27:25.982Z,34.50
2019-04-06T10:30:32.713Z,34.53
2019-04-06T10:33:20.173Z,34.90
2019-04-06T10:36:07.509Z,33.90
2019-04-06T10:39:05.264Z,31.60
2019-04-06T10:41:51.376Z,33.50
2019-04-06T10:44:49.068Z,32.73
2019-04-06T10:47:28.035Z,34.00
2019-04-06T10:50:11.685Z,35.37
2019-04-06T10:53:00.013Z,34.50
2019-04-06T10:55:54.076Z,35.97
2019-04-06T10:58:40.910Z,31.60
2019-04-06T11:01:35.286Z,35.00
2019-04-06T11:04:15.147Z,34.00
2019-04-06T11:06:56.747Z,34.00
2019-04-06T11:09:59.980Z,31.70
2019-04-06T11:13:00.308Z,30.73
2019-04-06T11:15:48.716Z,33.00
2019-04-06T11:18:43.031Z,28.70
2019-04-06T11:21:37.249Z,32.80
2019-04-06T11:24:24.184Z,33.57
2019-04-06T11:27:03.752Z,33.20
2019-04-06T11:29:44.335Z,28.40
2019-04-06T11:32:34.800Z,28.20
2019-04-06T11:35:14.532Z,31.20
2019-04-06T11:37:58.586Z,25.23
2019-04-06T11:40:47.337Z,24.13
2019-04-06T11:43:34.960Z,23.10
2019-04-06T11:46:26.403Z,24.00
2019-04-06T11:49:32.932Z,20.43
2019-04-06T11:52:13.657Z,21.03
2019-04-06T11:54:52.045Z,20.10
2019-04-06T11:57:43.028Z,21.73
2019-04-06T12:00:26.545Z,15.53
2019-04-06T12:03:02.446Z,14.07
2019-04-06T12:05:40.246Z,16.77
2019-04-06T12:08:28.904Z,14.87
2019-04-06T12:11:26.271Z,14.37
2019-04-06T12:14:08.674Z,18.37
2019-04-06T12:16:44.728Z,19.20
2019-04-06T12:19:36.459Z,10.63
2019-04-06T12:22:37.000Z,9.63
2019-04-06T12:25:14.544Z,7.10
2019-04-06T12:28:20.717Z,7.17
2019-04-06T12:31:07.913Z,7.40
2019-04-06T12:33:50.785Z,7.43
2019-04-06T12:36:35.000Z,6.17
2019-04-06T12:39:12.988Z,6.70
2019-04-06T12:42:00.113Z,5.80
2019-04-06T12:44:48.631Z,6.27
2019-04-06T12:47:25.392Z,6.37
2019-04-06T12:50:13.763Z,6.70
2019-04-06T12:53:20.537Z,6.90
2019-04-06T12:56:03.397Z,6.07
2019-04-06T12:58:51.788Z,6.27
2019-04-06T13:01:58.282Z,5.30
2019-04-06T13:04:46.677Z,6.00
2019-04-06T13:07:36.668Z,6.37
2019-04-06T13:10:25.928Z,6.20
2019-04-06T13:13:11.256Z,5.43
2019-04-06T13:15:46.484Z,4.97
2019-04-06T13:18:34.396Z,8.30
2019-04-06T13:21:22.782Z,7.20
2019-04-06T13:24:00.913Z,6.50
2019-04-06T13:26:49.396Z,6.03
2019-04-06T13:29:44.647Z,7.20
2019-04-06T13:32:41.664Z,7.00
2019-04-06T13:35:27.069Z,6.93
2019-04-06T13:38:04.300Z,7.20
2019-04-06T13:41:07.815Z,6.90
2019-04-06T13:43:45.909Z,7.20
2019-04-06T13:46:46.450Z,7.57
2019-04-06T13:49:25.823Z,7.27
2019-04-06T13:52:12.496Z,7.07
2019-04-06T13:54:59.294Z,6.50
2019-04-06T13:57:42.977Z,6.23
2019-04-06T14:00:31.586Z,5.50
2019-04-06T14:03:26.039Z,5.53
2019-04-06T14:06:17.557Z,6.60
2019-04-06T14:09:04.540Z,6.00
2019-04-06T14:12:01.706Z,9.07
2019-04-06T14:14:55.699Z,9.43
2019-04-06T14:17:42.371Z,8.70
2019-04-06T14:20:50.300Z,8.13
2019-04-06T14:23:41.859Z,7.70
2019-04-06T14:26:37.873Z,7.57
2019-04-06T14:29:19.784Z,7.90
2019-04-06T14:32:16.867Z,7.63
2019-04-06T14:35:14.665Z,7.90
2019-04-06T14:38:05.584Z,7.77
2019-04-06T14:40:59.844Z,7.03
2019-04-06T14:43:48.246Z,8.10
2019-04-06T14:46:45.620Z,7.90
2019-04-06T14:49:34.022Z,7.37
2019-04-06T14:52:18.204Z,7.70
2019-04-06T14:55:06.677Z,7.70
2019-04-06T14:57:53.761Z,6.93
2019-04-06T15:00:43.303Z,7.00
2019-04-06T15:03:34.887Z,8.67
2019-04-06T15:06:32.549Z,10.47
2019-04-06T15:09:18.658Z,10.53
2019-04-06T15:11:57.407Z,10.70
2019-04-06T15:14:53.379Z,9.00
2019-04-06T15:17:44.535Z,9.97
2019-04-06T15:20:45.403Z,9.40
2019-04-06T15:23:40.583Z,9.97
2019-04-06T15:26:28.972Z,11.10
2019-04-06T15:29:16.177Z,9.97
2019-04-06T15:32:22.780Z,8.83
2019-04-06T15:35:00.723Z,8.90
2019-04-06T15:37:41.605Z,8.40
2019-04-06T15:40:35.903Z,8.37
2019-04-06T15:43:33.208Z,7.73
2019-04-06T15:46:13.316Z,7.70
2019-04-06T15:49:07.920Z,7.43
2019-04-06T15:51:55.156Z,6.30
2019-04-06T15:54:46.359Z,6.27
2019-04-06T15:57:26.212Z,5.70
2019-04-06T16:00:20.173Z,6.17
2019-04-06T16:03:11.821Z,6.57
2019-04-06T16:05:51.823Z,5.27
2019-04-06T16:08:46.423Z,5.00
2019-04-06T16:11:23.580Z,4.70
2019-04-06T16:14:12.268Z,5.10
2019-04-06T16:17:03.413Z,5.77
2019-04-06T16:19:51.976Z,5.43
2019-04-06T16:22:49.725Z,6.00
2019-04-06T16:25:38.247Z,5.97
2019-04-06T16:28:22.137Z,4.63
2019-04-06T16:31:10.640Z,4.70
2019-04-06T16:33:59.014Z,4.90
2019-04-06T16:36:47.417Z,4.87
2019-04-06T16:39:30.212Z,4.33
2019-04-06T16:42:12.456Z,4.17
2019-04-06T16:44:47.954Z,5.23
2019-04-06T16:47:45.211Z,4.57
2019-04-06T16:50:32.300Z,4.53
2019-04-06T16:53:20.633Z,4.27
2019-04-06T16:56:03.266Z,4.00
2019-04-06T16:58:57.522Z,3.97
2019-04-06T17:01:44.383Z,4.33
2019-04-06T17:04:41.641Z,4.17
2019-04-06T17:07:27.142Z,5.00
2019-04-06T17:10:24.224Z,4.90
